createdAt,value
2019-04-29T00:00:05.083Z,99970.55
2019-04-29T00:02:39.170Z,99975.47
2019-04-29T00:05:11.590Z,99976.78
2019-04-29T00:07:43.997Z,99975.25
2019-04-29T00:10:17.188Z,99976.84
2019-04-29T00:12:49.584Z,99976.59
2019-04-29T00:15:39.565Z,99973.85
2019-04-29T00:18:18.718Z,99971.43
2019-04-29T00:20:51.621Z,99966.36
2019-04-29T00:23:24.023Z,99967.03
2019-04-29T00:25:56.490Z,99968.25
2019-04-29T00:28:28.959Z,99966.32
2019-04-29T00:31:02.752Z,99966.75
2019-04-29T00:33:35.207Z,99966.09
2019-04-29T00:36:07.622Z,99973.66
2019-04-29T00:39:08.379Z,99976.73
2019-04-29T00:41:58.826Z,99975.63
2019-04-29T00:44:31.361Z,99973.19
2019-04-29T00:47:03.771Z,99973.02
2019-04-29T00:49:36.224Z,99973.83
2019-04-29T00:52:08.588Z,99978.77
2019-04-29T00:54:49.521Z,99981.47
2019-04-29T00:57:34.115Z,99977.27
2019-04-29T01:00:07.106Z,99973.91
2019-04-29T01:02:41.011Z,99984.34
2019-04-29T01:05:13.357Z,99987.15
2019-04-29T01:07:46.840Z,99983.34
2019-04-29T01:10:19.329Z,99985.27
2019-04-29T01:12:51.751Z,99984.04
2019-04-29T01:15:24.167Z,99983.56
2019-04-29T01:17:56.584Z,99980.41
2019-04-29T01:20:29.002Z,99980.48
2019-04-29T01:23:01.396Z,99980.95
2019-04-29T01:25:33.821Z,99981.05
2019-04-29T01:28:27.940Z,99979.38
2019-04-29T01:31:09.124Z,99982.24
2019-04-29T01:33:41.608Z,99985.30
2019-04-29T01:36:44.985Z,99984.77
2019-04-29T01:39:17.568Z,99984.83
2019-04-29T01:42:07.039Z,99987.41
2019-04-29T01:44:39.692Z,99989.12
2019-04-29T01:47:12.124Z,99987.86
2019-04-29T01:49:44.519Z,99988.98
2019-04-29T01:52:16.935Z,99992.41
2019-04-29T01:54:49.361Z,99994.19
2019-04-29T01:57:21.783Z,99993.30
2019-04-29T01:59:54.188Z,99996.35
2019-04-29T02:02:26.620Z,100002.61
2019-04-29T02:04:59.016Z,99994.58
2019-04-29T02:07:31.454Z,99996.52
2019-04-29T02:10:13.579Z,99998.18
2019-04-29T02:12:46.018Z,99997.64
2019-04-29T02:15:18.424Z,100001.42
2019-04-29T02:17:50.930Z,99995.61
2019-04-29T02:20:23.325Z,99997.61
2019-04-29T02:23:20.386Z,99997.53
2019-04-29T02:25:52.832Z,99998.44
2019-04-29T02:28:25.226Z,99997.30
2019-04-29T02:30:59.367Z,99992.47
2019-04-29T02:33:31.862Z,99994.34
2019-04-29T02:36:04.298Z,99997.16
2019-04-29T02:38:48.395Z,99993.25
2019-04-29T02:41:29.499Z,99989.68
2019-04-29T02:44:03.898Z,99984.68
2019-04-29T02:46:36.329Z,99993.16
2019-04-29T02:49:08.723Z,99989.35
2019-04-29T02:51:51.221Z,99994.27
2019-04-29T02:54:25.028Z,99991.67
2019-04-29T02:57:03.121Z,99998.03
2019-04-29T02:59:40.390Z,99986.42
2019-04-29T03:02:29.552Z,99994.73
2019-04-29T03:05:26.903Z,99987.99
2019-04-29T03:07:59.341Z,99983.33
2019-04-29T03:10:31.802Z,99984.48
2019-04-29T03:13:04.159Z,99982.98
2019-04-29T03:15:39.537Z,99984.17
2019-04-29T03:18:11.894Z,99987.27
2019-04-29T03:20:55.394Z,99983.80
2019-04-29T03:23:27.904Z,99987.50
2019-04-29T03:26:00.316Z,99985.78
2019-04-29T03:28:32.738Z,99985.55
2019-04-29T03:31:05.184Z,99985.78
2019-04-29T03:33:37.621Z,99986.49
2019-04-29T03:36:10.023Z,99983.66
2019-04-29T03:38:43.448Z,99984.64
2019-04-29T03:41:15.846Z,99986.38
2019-04-29T03:43:48.274Z,99989.95
2019-04-29T03:46:20.592Z,99988.86
2019-04-29T03:48:53.010Z,99983.77
2019-04-29T03:51:25.417Z,99986.55
2019-04-29T03:53:57.850Z,99986.45
2019-04-29T03:56:30.325Z,99984.62
2019-04-29T03:59:02.761Z,99983.98
2019-04-29T04:01:43.967Z,99985.36
2019-04-29T04:04:41.123Z,99987.19
2019-04-29T04:07:39.925Z,99994.66
2019-04-29T04:10:12.742Z,100003.69
2019-04-29T04:12:45.146Z,99996.41
2019-04-29T04:15:17.577Z,100001.23
2019-04-29T04:17:56.791Z,100007.52
2019-04-29T04:20:29.219Z,100002.54
2019-04-29T04:23:01.624Z,100013.02
2019-04-29T04:25:33.987Z,100009.82
2019-04-29T04:28:06.386Z,100016.25
2019-04-29T04:30:38.817Z,100014.98
2019-04-29T04:33:11.343Z,100023.55
2019-04-29T04:35:43.775Z,100022.67
2019-04-29T04:38:16.233Z,100031.61
2019-04-29T04:41:05.079Z,100031.19
2019-04-29T04:43:37.419Z,100041.75
2019-04-29T04:46:09.864Z,100043.52
2019-04-29T04:48:42.303Z,100049.10
2019-04-29T04:51:14.705Z,100052.40
2019-04-29T04:53:47.212Z,100047.09
2019-04-29T04:56:19.622Z,100049.72
2019-04-29T04:58:52.046Z,100046.12
2019-04-29T05:01:24.455Z,100051.14
2019-04-29T05:03:57.972Z,100053.02
2019-04-29T05:06:30.357Z,100055.42
2019-04-29T05:09:05.873Z,100056.14
2019-04-29T05:11:38.344Z,100056.70
2019-04-29T05:14:10.783Z,100060.34
2019-04-29T05:16:43.183Z,100065.05
2019-04-29T05:19:15.751Z,100063.84
2019-04-29T05:21:48.152Z,100062.86
2019-04-29T05:24:20.504Z,100063.16
2019-04-29T05:26:52.911Z,100062.16
2019-04-29T05:29:28.467Z,100061.02
2019-04-29T05:31:59.454Z,100065.47
2019-04-29T05:34:33.554Z,100063.87
2019-04-29T05:37:13.020Z,100067.77
2019-04-29T05:39:45.461Z,100074.23
2019-04-29T05:42:17.865Z,100075.55
2019-04-29T05:45:11.972Z,100068.18
2019-04-29T05:47:47.389Z,100068.66
2019-04-29T05:50:29.106Z,100068.67
2019-04-29T05:53:11.387Z,100067.00
2019-04-29T05:55:44.216Z,100073.05
2019-04-29T05:58:16.623Z,100077.00
2019-04-29T06:01:02.210Z,100082.65
2019-04-29T06:03:37.802Z,100083.71
2019-04-29T06:06:12.061Z,100084.55
2019-04-29T06:08:43.009Z,100086.39
2019-04-29T06:11:15.440Z,100081.29
2019-04-29T06:13:47.847Z,100083.86
2019-04-29T06:16:21.030Z,100083.28
2019-04-29T06:18:59.745Z,100084.43
2019-04-29T06:21:28.511Z,100087.98
2019-04-29T06:24:04.633Z,100093.16
2019-04-29T06:26:35.030Z,100096.75
2019-04-29T06:29:07.439Z,100096.39
2019-04-29T06:31:39.865Z,100101.01
2019-04-29T06:34:12.294Z,100096.19
2019-04-29T06:36:44.721Z,100093.70
2019-04-29T06:39:17.127Z,100099.42
2019-04-29T06:41:49.553Z,100097.91
2019-04-29T06:44:21.960Z,100092.79
2019-04-29T06:46:56.224Z,100097.25
2019-04-29T06:49:28.494Z,100096.89
2019-04-29T06:52:00.926Z,100094.89
2019-04-29T06:54:33.335Z,100093.77
2019-04-29T06:57:05.768Z,100093.93
2019-04-29T06:59:38.169Z,100092.07
2019-04-29T07:02:14.467Z,100095.97
2019-04-29T07:04:44.661Z,100097.88
2019-04-29T07:07:17.095Z,100093.74
2019-04-29T07:09:49.511Z,100092.58
2019-04-29T07:12:21.928Z,100093.92
2019-04-29T07:14:54.336Z,100094.47
2019-04-29T07:17:26.761Z,100091.95
2019-04-29T07:20:02.014Z,100095.25
2019-04-29T07:22:33.307Z,100096.67
2019-04-29T07:25:05.815Z,100095.59
2019-04-29T07:27:42.966Z,100092.86
2019-04-29T07:30:12.486Z,100089.52
2019-04-29T07:32:47.473Z,100087.27
2019-04-29T07:35:20.684Z,100087.30
2019-04-29T07:37:53.153Z,100087.47
2019-04-29T07:40:25.501Z,100085.66
2019-04-29T07:42:57.936Z,100092.80
2019-04-29T07:45:58.745Z,100093.10
2019-04-29T07:48:32.331Z,100093.09
2019-04-29T07:51:05.954Z,100086.12
2019-04-29T07:53:45.251Z,100086.70
2019-04-29T07:56:12.689Z,100082.34
2019-04-29T07:58:45.155Z,100077.97
2019-04-29T08:01:19.723Z,100073.34
2019-04-29T08:03:53.573Z,100078.11
2019-04-29T08:06:26.020Z,100085.58
2019-04-29T08:09:03.191Z,100083.09
2019-04-29T08:11:32.602Z,100083.39
2019-04-29T08:14:05.045Z,100084.68
2019-04-29T08:16:37.467Z,100079.56
2019-04-29T08:19:09.906Z,100076.69
2019-04-29T08:21:45.569Z,100083.36
2019-04-29T08:24:17.048Z,100079.83
2019-04-29T08:26:49.544Z,100080.16
2019-04-29T08:29:24.419Z,100078.23
2019-04-29T08:32:01.884Z,100075.38
2019-04-29T08:34:30.989Z,100077.82
2019-04-29T08:37:03.475Z,100079.73
2019-04-29T08:39:35.907Z,100078.94
2019-04-29T08:42:12.699Z,100075.59
2019-04-29T08:45:07.015Z,100071.98
2019-04-29T08:47:41.478Z,100071.77
2019-04-29T08:50:13.901Z,100076.55
2019-04-29T08:52:46.322Z,100074.28
2019-04-29T08:55:19.482Z,100066.04
2019-04-29T08:57:52.022Z,100069.79
2019-04-29T09:00:24.467Z,100069.66
2019-04-29T09:02:56.874Z,100070.02
2019-04-29T09:05:29.309Z,100069.54
2019-04-29T09:08:01.724Z,100067.37
2019-04-29T09:10:36.782Z,100072.52
2019-04-29T09:13:09.515Z,100068.83
2019-04-29T09:15:41.995Z,100059.77
2019-04-29T09:18:14.397Z,100059.19
2019-04-29T09:20:46.829Z,100057.80
2019-04-29T09:23:23.639Z,100063.91
2019-04-29T09:26:14.991Z,100059.74
2019-04-29T09:28:49.793Z,100057.28
2019-04-29T09:31:21.556Z,100051.34
2019-04-29T09:34:06.028Z,100048.95
2019-04-29T09:36:28.932Z,100046.48
2019-04-29T09:39:01.631Z,100057.88
2019-04-29T09:41:42.852Z,100051.52
2019-04-29T09:44:35.250Z,100047.24
2019-04-29T09:47:08.467Z,100045.52
2019-04-29T09:49:42.004Z,100045.63
2019-04-29T09:52:14.435Z,100049.95
2019-04-29T09:54:46.850Z,100047.66
2019-04-29T09:57:19.370Z,100048.45
2019-04-29T10:00:00.225Z,100046.27
2019-04-29T10:02:40.871Z,100042.80
2019-04-29T10:05:30.693Z,100041.29
2019-04-29T10:08:03.213Z,100038.14
2019-04-29T10:10:37.438Z,100039.58
2019-04-29T10:13:10.105Z,100036.24
2019-04-29T10:16:11.040Z,100041.64
2019-04-29T10:18:48.572Z,100039.23
2019-04-29T10:21:23.300Z,100029.02
2019-04-29T10:23:55.355Z,100023.97
2019-04-29T10:26:27.880Z,100027.58
2019-04-29T10:29:04.664Z,100023.14
2019-04-29T10:31:37.112Z,100018.90
2019-04-29T10:34:09.559Z,100013.03
2019-04-29T10:36:42.049Z,100013.36
2019-04-29T10:39:42.232Z,100015.01
2019-04-29T10:42:16.174Z,100014.31
2019-04-29T10:45:16.878Z,100013.67
2019-04-29T10:48:05.021Z,100011.65
2019-04-29T10:50:39.104Z,100002.84
2019-04-29T10:53:15.502Z,99997.20
2019-04-29T10:55:45.790Z,99995.47
2019-04-29T10:58:21.952Z,99992.79
2019-04-29T11:02:01.705Z,99991.97
2019-04-29T11:04:35.981Z,99986.69
2019-04-29T11:07:19.083Z,99977.43
2019-04-29T11:09:56.344Z,99977.34
2019-04-29T11:12:28.772Z,99973.16
2019-04-29T11:15:01.909Z,99968.00
2019-04-29T11:17:39.562Z,99964.92
2019-04-29T11:20:11.143Z,99961.38
2019-04-29T11:22:49.607Z,99954.64
2019-04-29T11:25:51.681Z,99954.09
2019-04-29T11:28:24.549Z,99945.06
2019-04-29T11:30:57.022Z,99939.49
2019-04-29T11:33:46.194Z,99943.59
2019-04-29T11:36:20.268Z,99940.91
2019-04-29T11:38:52.687Z,99941.16
2019-04-29T11:41:26.601Z,99935.92
2019-04-29T11:43:59.040Z,99936.28
2019-04-29T11:46:31.604Z,99941.41
2019-04-29T11:49:05.608Z,99935.70
2019-04-29T11:52:05.068Z,99940.55
2019-04-29T11:54:18.039Z,99937.12
2019-04-29T11:56:49.331Z,99930.34
2019-04-29T11:59:39.752Z,99926.49
2019-04-29T12:02:45.531Z,99923.82
2019-04-29T12:05:20.413Z,99921.98
2019-04-29T12:07:52.809Z,99918.80
2019-04-29T12:10:25.238Z,99918.00
2019-04-29T12:12:59.287Z,99916.61
2019-04-29T12:15:40.347Z,99918.58
2019-04-29T12:18:27.171Z,99917.87
2019-04-29T12:21:21.554Z,99919.85
2019-04-29T12:23:55.605Z,99919.30
2019-04-29T12:26:28.042Z,99926.82
2019-04-29T12:29:00.379Z,99918.95
2019-04-29T12:31:56.033Z,99917.35
2019-04-29T12:35:05.941Z,99909.44
2019-04-29T12:37:56.215Z,99914.00
2019-04-29T12:40:50.234Z,99916.89
2019-04-29T12:43:32.305Z,99911.83
2019-04-29T12:46:22.712Z,99908.39
2019-04-29T12:48:55.133Z,99903.13
2019-04-29T12:51:27.561Z,99890.17
2019-04-29T12:53:59.964Z,99886.74
2019-04-29T12:56:34.860Z,99885.23
2019-04-29T12:59:08.335Z,99882.75
2019-04-29T13:02:19.925Z,99877.87
2019-04-29T13:05:04.191Z,99877.42
2019-04-29T13:07:55.592Z,99871.81
2019-04-29T13:10:37.829Z,99870.05
2019-04-29T13:13:09.571Z,99867.12
2019-04-29T13:16:07.077Z,99861.88
2019-04-29T13:18:48.877Z,99857.74
2019-04-29T13:21:19.381Z,99856.47
2019-04-29T13:24:04.949Z,99851.77
2019-04-29T13:26:28.328Z,99846.64
2019-04-29T13:29:01.463Z,99846.16
2019-04-29T13:31:38.395Z,99842.99
2019-04-29T13:34:23.516Z,99840.27
2019-04-29T13:36:45.316Z,99836.69
2019-04-29T13:39:37.999Z,99836.53
2019-04-29T13:41:57.546Z,99835.13
2019-04-29T13:44:27.756Z,99831.42
2019-04-29T13:47:17.842Z,99831.59
2019-04-29T13:50:16.947Z,99827.16
2019-04-29T13:52:33.637Z,99819.96
2019-04-29T13:55:17.143Z,99818.75
2019-04-29T13:57:44.956Z,99817.27
2019-04-29T14:00:29.201Z,99817.02
2019-04-29T14:03:07.255Z,99819.45
2019-04-29T14:05:41.793Z,99820.44
2019-04-29T14:08:14.393Z,99819.88
2019-04-29T14:10:51.188Z,99817.04
2019-04-29T14:13:21.533Z,99816.36
2019-04-29T14:15:54.131Z,99815.63
2019-04-29T14:18:26.555Z,99809.75
2019-04-29T14:20:58.947Z,99812.59
2019-04-29T14:23:32.758Z,99809.66
2019-04-29T14:26:05.183Z,99816.10
2019-04-29T14:28:37.672Z,99820.81
2019-04-29T14:31:10.077Z,99818.86
2019-04-29T14:33:50.867Z,99823.22
2019-04-29T14:36:24.688Z,99822.43
2019-04-29T14:38:57.363Z,99820.44
2019-04-29T14:41:31.421Z,99823.98
2019-04-29T14:44:26.450Z,99827.94
2019-04-29T14:47:15.998Z,99827.43
2019-04-29T14:49:55.021Z,99832.52
2019-04-29T14:52:27.291Z,99835.69
2019-04-29T14:54:59.702Z,99836.77
2019-04-29T14:57:32.139Z,99842.32
2019-04-29T15:00:06.537Z,99842.98
2019-04-29T15:02:39.982Z,99850.10
2019-04-29T15:05:14.028Z,99848.23
2019-04-29T15:07:46.886Z,99850.43
2019-04-29T15:10:20.763Z,99856.11
2019-04-29T15:13:18.334Z,99856.00
2019-04-29T15:16:04.614Z,99856.70
2019-04-29T15:18:50.643Z,99855.58
2019-04-29T15:21:42.611Z,99857.05
2019-04-29T15:24:09.072Z,99863.84
2019-04-29T15:26:41.574Z,99863.90
2019-04-29T15:29:13.999Z,99862.94
2019-04-29T15:31:47.003Z,99861.11
2019-04-29T15:34:20.474Z,99859.30
2019-04-29T15:36:52.890Z,99855.77
2019-04-29T15:39:25.976Z,99855.93
2019-04-29T15:42:01.708Z,99853.91
2019-04-29T15:44:32.892Z,99850.65
2019-04-29T15:47:05.285Z,99848.84
2019-04-29T15:49:37.715Z,99848.30
2019-04-29T15:52:10.108Z,99846.17
2019-04-29T15:54:45.957Z,99848.36
2019-04-29T15:57:16.962Z,99848.63
2019-04-29T15:59:58.503Z,99842.12
2019-04-29T16:02:23.745Z,99843.13
2019-04-29T16:05:04.604Z,99841.53
2019-04-29T16:08:10.324Z,99832.83
2019-04-29T16:10:57.849Z,99828.45
2019-04-29T16:13:27.729Z,99826.57
2019-04-29T16:16:00.894Z,99828.28
2019-04-29T16:18:33.252Z,99832.29
2019-04-29T16:21:05.798Z,99833.78
2019-04-29T16:23:40.105Z,99823.80
2019-04-29T16:26:12.318Z,99822.25
2019-04-29T16:28:44.923Z,99823.05
2019-04-29T16:31:17.351Z,99827.11
2019-04-29T16:33:54.691Z,99819.36
2019-04-29T16:36:25.254Z,99819.43
2019-04-29T16:38:57.797Z,99812.05
2019-04-29T16:41:51.126Z,99809.92
2019-04-29T16:44:34.755Z,99813.52
2019-04-29T16:46:56.385Z,99809.56
2019-04-29T16:49:28.804Z,99810.58
2019-04-29T16:52:02.760Z,99807.17
2019-04-29T16:54:35.189Z,99810.80
2019-04-29T16:57:07.589Z,99807.91
2019-04-29T16:59:40.033Z,99806.20
2019-04-29T17:02:18.942Z,99804.70
2019-04-29T17:04:49.323Z,99798.36
2019-04-29T17:07:22.790Z,99799.92
2019-04-29T17:10:11.961Z,99796.28
2019-04-29T17:12:48.657Z,99805.36
2019-04-29T17:15:25.493Z,99797.52
2019-04-29T17:17:55.331Z,99790.91
2019-04-29T17:20:27.767Z,99796.77
2019-04-29T17:23:00.171Z,99807.94
2019-04-29T17:25:32.938Z,99812.84
2019-04-29T17:28:29.215Z,99821.29
2019-04-29T17:31:17.046Z,99817.60
2019-04-29T17:33:57.893Z,99814.98
2019-04-29T17:36:30.729Z,99806.72
2019-04-29T17:39:03.348Z,99810.66
2019-04-29T17:41:37.302Z,99814.02
2019-04-29T17:44:29.491Z,99818.10
2019-04-29T17:47:20.814Z,99819.95
2019-04-29T17:50:02.081Z,99824.39
2019-04-29T17:52:36.994Z,99819.95
2019-04-29T17:55:15.318Z,99817.66
2019-04-29T17:58:06.627Z,99816.38
2019-04-29T18:00:55.481Z,99813.34
2019-04-29T18:03:42.711Z,99819.43
2019-04-29T18:06:34.298Z,99820.13
2019-04-29T18:09:29.535Z,99822.80
2019-04-29T18:12:05.833Z,99824.22
2019-04-29T18:14:41.748Z,99831.87
2019-04-29T18:17:24.306Z,99830.53
2019-04-29T18:20:13.629Z,99818.63
2019-04-29T18:23:04.857Z,99816.38
2019-04-29T18:25:45.049Z,99826.78
2019-04-29T18:28:17.607Z,99839.75
2019-04-29T18:30:54.451Z,99830.89
2019-04-29T18:33:30.003Z,99824.45
2019-04-29T18:36:04.336Z,99824.60
2019-04-29T18:38:35.060Z,99815.42
2019-04-29T18:41:07.585Z,99808.84
2019-04-29T18:43:40.109Z,99809.98
2019-04-29T18:46:14.374Z,99819.53
2019-04-29T18:48:47.725Z,99831.44
2019-04-29T18:51:25.623Z,99835.92
2019-04-29T18:53:56.233Z,99818.45
2019-04-29T18:56:32.305Z,99810.72
2019-04-29T18:59:02.826Z,99804.91
2019-04-29T19:01:35.253Z,99794.02
2019-04-29T19:04:23.381Z,99777.48
2019-04-29T19:07:01.172Z,99786.33
2019-04-29T19:09:32.146Z,99795.67
2019-04-29T19:12:05.694Z,99798.02
2019-04-29T19:14:38.197Z,99806.78
2019-04-29T19:17:10.832Z,99808.84
2019-04-29T19:19:44.895Z,99817.16
2019-04-29T19:22:17.468Z,99825.22
2019-04-29T19:24:49.959Z,99827.73
2019-04-29T19:27:22.396Z,99830.57
2019-04-29T19:29:55.050Z,99842.20
2019-04-29T19:32:30.742Z,99847.05
2019-04-29T19:35:03.202Z,99856.13
2019-04-29T19:37:37.405Z,99850.67
2019-04-29T19:40:09.980Z,99853.35
2019-04-29T19:42:42.580Z,99850.13
2019-04-29T19:45:17.268Z,99855.11
2019-04-29T19:47:53.147Z,99855.43
2019-04-29T19:50:23.476Z,99841.45
2019-04-29T19:52:55.988Z,99845.01
2019-04-29T19:55:28.403Z,99846.93
2019-04-29T19:58:01.134Z,99843.64
2019-04-29T20:00:35.942Z,99839.16
2019-04-29T20:03:20.461Z,99832.53
2019-04-29T20:05:48.528Z,99824.05
2019-04-29T20:08:41.255Z,99827.78
2019-04-29T20:11:10.544Z,99835.41
2019-04-29T20:13:33.608Z,99837.88
2019-04-29T20:16:27.917Z,99838.78
2019-04-29T20:19:16.244Z,99846.73
2019-04-29T20:21:43.260Z,99848.63
2019-04-29T20:24:17.865Z,99847.03
2019-04-29T20:26:50.087Z,99846.57
2019-04-29T20:29:27.165Z,99843.73
2019-04-29T20:31:56.808Z,99841.50
2019-04-29T20:34:29.510Z,99832.27
2019-04-29T20:37:02.056Z,99828.16
2019-04-29T20:39:35.726Z,99830.88
2019-04-29T20:42:10.303Z,99828.48
2019-04-29T20:44:47.629Z,99827.67
2019-04-29T20:47:23.033Z,99828.16
2019-04-29T20:49:50.701Z,99822.34
2019-04-29T20:52:52.177Z,99818.66
2019-04-29T20:55:22.410Z,99814.23
2019-04-29T20:57:54.969Z,99813.28
2019-04-29T21:00:29.169Z,99809.38
2019-04-29T21:03:07.287Z,99805.64
2019-04-29T21:05:46.858Z,99807.56
2019-04-29T21:08:16.148Z,99811.45
2019-04-29T21:10:48.236Z,99811.78
2019-04-29T21:13:57.232Z,99810.29
2019-04-29T21:16:35.653Z,99806.55
2019-04-29T21:19:09.131Z,99811.66
2019-04-29T21:21:43.591Z,99811.77
2019-04-29T21:24:18.548Z,99803.39
2019-04-29T21:26:49.821Z,99808.24
2019-04-29T21:29:22.245Z,99803.88
2019-04-29T21:31:58.406Z,99803.94
2019-04-29T21:34:38.645Z,99805.27
2019-04-29T21:37:22.532Z,99807.30
2019-04-29T21:40:07.029Z,99808.05
2019-04-29T21:42:49.871Z,99793.04
2019-04-29T21:45:22.309Z,99792.52
2019-04-29T21:47:54.744Z,99795.08
2019-04-29T21:50:34.062Z,99797.58
2019-04-29T21:53:03.437Z,99797.05
2019-04-29T21:55:36.601Z,99796.41
2019-04-29T21:58:09.017Z,99796.62
2019-04-29T22:00:42.528Z,99794.38
2019-04-29T22:03:19.850Z,99793.37
2019-04-29T22:05:53.475Z,99792.30
2019-04-29T22:08:29.814Z,99793.70
2019-04-29T22:11:04.790Z,99791.81
2019-04-29T22:13:38.915Z,99789.84
2019-04-29T22:16:11.592Z,99797.36
2019-04-29T22:18:51.734Z,99796.83
2019-04-29T22:21:21.941Z,99790.70
2019-04-29T22:23:52.828Z,99794.69
2019-04-29T22:26:27.034Z,99798.86
2019-04-29T22:29:03.357Z,99797.96
2019-04-29T22:31:36.402Z,99806.55
2019-04-29T22:34:09.870Z,99804.67
2019-04-29T22:36:41.934Z,99803.39
2019-04-29T22:39:15.826Z,99809.63
2019-04-29T22:42:11.970Z,99805.00
2019-04-29T22:44:45.733Z,99806.70
2019-04-29T22:47:23.503Z,99804.89
2019-04-29T22:49:52.347Z,99803.44
2019-04-29T22:52:25.407Z,99803.50
2019-04-29T22:55:01.551Z,99802.64
2019-04-29T22:57:33.249Z,99802.16
2019-04-29T23:00:06.589Z,99802.69
2019-04-29T23:02:40.769Z,99798.54
2019-04-29T23:05:13.198Z,99798.05
2019-04-29T23:07:45.657Z,99793.42
2019-04-29T23:10:24.065Z,99787.67
2019-04-29T23:12:54.062Z,99795.28
2019-04-29T23:15:26.365Z,99791.76
2019-04-29T23:17:58.782Z,99794.76
2019-04-29T23:20:49.070Z,99794.96
2019-04-29T23:23:33.358Z,99788.93
2019-04-29T23:26:04.200Z,99787.61
2019-04-29T23:28:35.684Z,99785.73
2019-04-29T23:31:08.322Z,99783.66
2019-04-29T23:33:40.757Z,99782.06
2019-04-29T23:36:14.283Z,99781.56
2019-04-29T23:38:47.303Z,99781.41
2019-04-29T23:41:19.731Z,99779.70
2019-04-29T23:43:52.148Z,99780.36
2019-04-29T23:46:24.583Z,99780.36
2019-04-29T23:49:03.138Z,99783.33
2019-04-29T23:51:34.512Z,99777.69
2019-04-29T23:54:07.859Z,99774.01
2019-04-29T23:56:58.239Z,99775.44
2019-04-29T23:59:32.522Z,99773.63
